createdAt,value
2022-10-13T00:01:22.405Z,100982.09
2022-10-13T00:03:51.441Z,100987.03
2022-10-13T00:06:25.364Z,100983.63
2022-10-13T00:08:54.427Z,100981.03
2022-10-13T00:11:25.688Z,100980.19
2022-10-13T00:13:57.246Z,100990.66
2022-10-13T00:16:26.750Z,100985.69
2022-10-13T00:18:55.092Z,100982.50
2022-10-13T00:21:26.991Z,100982.41
2022-10-13T00:23:55.689Z,100978.03
2022-10-13T00:26:26.013Z,100972.25
2022-10-13T00:28:55.603Z,100968.94
2022-10-13T00:31:27.646Z,100982.03
2022-10-13T00:33:57.162Z,100974.41
2022-10-13T00:36:28.817Z,100973.56
2022-10-13T00:38:57.338Z,100976.50
2022-10-13T00:41:25.407Z,100976.44
2022-10-13T00:44:02.518Z,100972.97
2022-10-13T00:46:33.515Z,100969.44
2022-10-13T00:49:08.038Z,100969.34
2022-10-13T00:51:44.469Z,100971.09
2022-10-13T00:54:20.572Z,100966.44
2022-10-13T00:56:51.387Z,100971.38
2022-10-13T00:59:27.345Z,100972.13
2022-10-13T01:01:59.298Z,100974.63
2022-10-13T01:04:33.228Z,100968.28
2022-10-13T01:07:04.034Z,100964.66
2022-10-13T01:09:37.582Z,100962.91
2022-10-13T01:12:21.925Z,100961.13
2022-10-13T01:15:03.013Z,100947.38
2022-10-13T01:17:41.345Z,100949.78
2022-10-13T01:20:42.698Z,100937.59
2022-10-13T01:23:42.131Z,100942.63
2022-10-13T01:26:42.673Z,100936.69
2022-10-13T01:29:34.396Z,100936.69
2022-10-13T01:32:14.929Z,100933.28
2022-10-13T01:34:55.658Z,100930.69
2022-10-13T01:37:34.777Z,100927.44
2022-10-13T01:40:10.299Z,100931.06
2022-10-13T01:42:46.961Z,100937.03
2022-10-13T01:45:22.218Z,100928.31
2022-10-13T01:47:52.918Z,100924.88
2022-10-13T01:50:20.990Z,100925.63
2022-10-13T01:52:51.924Z,100925.63
2022-10-13T01:55:20.049Z,100923.13
2022-10-13T01:57:47.935Z,100924.88
2022-10-13T02:00:21.105Z,100913.81
2022-10-13T02:03:09.056Z,100911.81
2022-10-13T02:05:49.571Z,100905.72
2022-10-13T02:08:28.372Z,100907.78
2022-10-13T02:11:12.457Z,100906.84
2022-10-13T02:13:46.277Z,100902.91
2022-10-13T02:16:23.626Z,100895.19
2022-10-13T02:18:53.398Z,100897.09
2022-10-13T02:21:21.478Z,100898.53
2022-10-13T02:23:50.130Z,100908.00
2022-10-13T02:26:21.925Z,100915.06
2022-10-13T02:28:58.537Z,100910.81
2022-10-13T02:31:26.484Z,100907.28
2022-10-13T02:33:55.550Z,100903.22
2022-10-13T02:36:23.982Z,100905.41
2022-10-13T02:38:51.876Z,100905.59
2022-10-13T02:41:19.804Z,100906.56
2022-10-13T02:43:47.652Z,100895.41
2022-10-13T02:46:15.571Z,100904.22
2022-10-13T02:48:44.677Z,100897.50
2022-10-13T02:51:13.757Z,100898.53
2022-10-13T02:53:41.502Z,100894.34
2022-10-13T02:56:09.442Z,100903.91
2022-10-13T02:58:38.099Z,100903.09
2022-10-13T03:01:07.175Z,100904.91
2022-10-13T03:03:36.184Z,100898.25
2022-10-13T03:06:04.361Z,100897.25
2022-10-13T03:08:35.376Z,100898.84
2022-10-13T03:11:03.289Z,100898.84
2022-10-13T03:13:31.063Z,100911.03
2022-10-13T03:16:06.853Z,100898.41
2022-10-13T03:18:35.212Z,100891.56
2022-10-13T03:21:06.714Z,100884.91
2022-10-13T03:23:35.838Z,100886.84
2022-10-13T03:26:04.497Z,100887.03
2022-10-13T03:28:32.391Z,100876.75
2022-10-13T03:31:02.134Z,100878.50
2022-10-13T03:33:29.957Z,100876.13
2022-10-13T03:36:02.308Z,100877.09
2022-10-13T03:38:32.259Z,100878.31
2022-10-13T03:41:07.209Z,100874.16
2022-10-13T03:43:35.769Z,100869.22
2022-10-13T03:46:05.927Z,100865.88
2022-10-13T03:48:36.255Z,100871.22
2022-10-13T03:51:06.428Z,100865.97
2022-10-13T03:53:34.989Z,100862.44
2022-10-13T03:56:06.538Z,100862.63
2022-10-13T03:58:36.457Z,100857.66
2022-10-13T04:01:05.892Z,100855.09
2022-10-13T04:03:34.951Z,100853.38
2022-10-13T04:06:05.549Z,100853.50
2022-10-13T04:08:34.436Z,100846.69
2022-10-13T04:11:06.492Z,100842.56
2022-10-13T04:13:34.713Z,100839.25
2022-10-13T04:16:03.584Z,100838.31
2022-10-13T04:18:32.093Z,100846.75
2022-10-13T04:21:00.299Z,100838.78
2022-10-13T04:23:29.272Z,100839.75
2022-10-13T04:25:57.670Z,100836.28
2022-10-13T04:28:26.927Z,100832.63
2022-10-13T04:30:54.741Z,100837.75
2022-10-13T04:33:22.516Z,100835.22
2022-10-13T04:35:50.457Z,100836.16
2022-10-13T04:38:18.293Z,100836.97
2022-10-13T04:40:46.037Z,100828.38
2022-10-13T04:43:15.753Z,100828.50
2022-10-13T04:45:44.858Z,100834.50
2022-10-13T04:48:12.850Z,100826.72
2022-10-13T04:50:40.867Z,100824.25
2022-10-13T04:53:08.655Z,100823.31
2022-10-13T04:55:37.148Z,100817.31
2022-10-13T04:58:04.979Z,100824.19
2022-10-13T05:00:32.857Z,100825.03
2022-10-13T05:03:02.033Z,100807.59
2022-10-13T05:05:29.799Z,100812.66
2022-10-13T05:07:57.537Z,100818.09
2022-10-13T05:10:25.429Z,100816.47
2022-10-13T05:12:53.836Z,100814.13
2022-10-13T05:15:21.575Z,100816.66
2022-10-13T05:17:49.521Z,100814.88
2022-10-13T05:20:18.621Z,100806.94
2022-10-13T05:22:46.407Z,100816.31
2022-10-13T05:25:14.273Z,100812.06
2022-10-13T05:27:42.142Z,100807.00
2022-10-13T05:30:12.138Z,100802.72
2022-10-13T05:32:40.265Z,100805.13
2022-10-13T05:35:09.849Z,100796.66
2022-10-13T05:37:42.650Z,100797.53
2022-10-13T05:40:11.724Z,100789.13
2022-10-13T05:42:39.604Z,100801.47
2022-10-13T05:45:11.088Z,100801.47
2022-10-13T05:47:39.012Z,100789.28
2022-10-13T05:50:08.426Z,100778.56
2022-10-13T05:52:37.851Z,100786.16
2022-10-13T05:55:11.142Z,100792.09
2022-10-13T05:57:44.334Z,100792.34
2022-10-13T06:00:15.920Z,100787.81
2022-10-13T06:02:49.543Z,100791.34
2022-10-13T06:05:21.797Z,100772.69
2022-10-13T06:07:55.889Z,100777.03
2022-10-13T06:10:26.164Z,100778.44
2022-10-13T06:12:54.031Z,100777.56
2022-10-13T06:15:27.812Z,100769.50
2022-10-13T06:17:57.399Z,100782.69
2022-10-13T06:20:27.401Z,100774.38
2022-10-13T06:22:55.254Z,100778.81
2022-10-13T06:25:23.216Z,100771.09
2022-10-13T06:27:52.435Z,100777.03
2022-10-13T06:30:20.307Z,100778.81
2022-10-13T06:32:48.185Z,100777.34
2022-10-13T06:35:16.123Z,100774.97
2022-10-13T06:37:46.318Z,100777.41
2022-10-13T06:40:14.775Z,100768.97
2022-10-13T06:42:42.732Z,100765.47
2022-10-13T06:45:12.335Z,100777.84
2022-10-13T06:47:41.334Z,100772.66
2022-10-13T06:50:10.024Z,100777.00
2022-10-13T06:52:38.206Z,100786.59
2022-10-13T06:55:07.017Z,100780.72
2022-10-13T06:57:36.022Z,100779.84
2022-10-13T07:00:08.187Z,100784.47
2022-10-13T07:02:37.675Z,100786.38
2022-10-13T07:05:06.243Z,100782.22
2022-10-13T07:07:34.057Z,100777.28
2022-10-13T07:10:02.052Z,100784.38
2022-10-13T07:12:29.836Z,100776.63
2022-10-13T07:14:57.714Z,100777.53
2022-10-13T07:17:25.642Z,100780.31
2022-10-13T07:19:57.828Z,100783.78
2022-10-13T07:22:27.016Z,100771.69
2022-10-13T15:53:21.656Z,100596.38
2022-10-13T15:55:50.991Z,100591.13
2022-10-13T15:58:18.805Z,100591.13
2022-10-13T16:00:46.680Z,100592.84
2022-10-13T16:03:17.919Z,100593.72
2022-10-13T16:05:46.943Z,100594.59
2022-10-13T16:08:14.837Z,100584.09
2022-10-13T16:10:43.556Z,100583.25
2022-10-13T16:13:15.366Z,100585.84
2022-10-13T16:15:43.094Z,100578.84
2022-10-13T16:18:10.817Z,100585.72
2022-10-13T16:20:40.626Z,100582.16
2022-10-13T16:23:08.329Z,100589.16
2022-10-13T16:25:39.375Z,100587.44
2022-10-13T16:28:07.150Z,100582.22
2022-10-13T16:30:37.437Z,100574.47
2022-10-13T16:33:05.308Z,100581.44
2022-10-13T16:35:34.229Z,100579.72
2022-10-13T16:38:02.078Z,100571.91
2022-10-13T16:40:34.408Z,100575.41
2022-10-13T16:43:02.082Z,100572.78
2022-10-13T16:45:47.892Z,100578.88
2022-10-13T16:48:18.854Z,100576.28
2022-10-13T16:50:46.788Z,100571.09
2022-10-13T16:53:14.546Z,100575.44
2022-10-13T16:55:42.477Z,100575.47
2022-10-13T16:58:10.635Z,100578.88
2022-10-13T17:00:39.356Z,100571.88
2022-10-13T17:03:07.766Z,100574.47
2022-10-13T17:05:37.127Z,100572.66
2022-10-13T17:08:05.262Z,100580.44
2022-10-13T17:10:33.890Z,100572.66
2022-10-13T17:13:01.991Z,100575.28
2022-10-13T17:15:32.963Z,100575.22
2022-10-13T17:18:00.649Z,100572.63
2022-10-13T17:20:28.342Z,100570.03
2022-10-13T17:22:57.428Z,100572.59
2022-10-13T17:25:25.197Z,100576.97
2022-10-13T17:27:53.075Z,100578.72
2022-10-13T17:30:21.169Z,100585.69
2022-10-13T17:32:49.768Z,100587.38
2022-10-13T17:35:18.080Z,100578.66
2022-10-13T17:37:49.067Z,100582.06
2022-10-13T17:40:20.317Z,100576.00
2022-10-13T17:42:48.097Z,100586.47
2022-10-13T17:45:16.406Z,100589.94
2022-10-13T17:47:48.393Z,100590.00
2022-10-13T17:50:16.826Z,100583.06
2022-10-13T17:52:44.659Z,100586.50
2022-10-13T17:55:12.502Z,100588.31
2022-10-13T17:57:41.548Z,100588.34
2022-10-13T18:00:11.212Z,100590.09
2022-10-13T18:02:42.844Z,100588.38
2022-10-13T18:05:10.964Z,100575.31
2022-10-13T18:07:38.857Z,100570.09
2022-10-13T18:10:08.004Z,100576.16
2022-10-13T18:12:35.736Z,100565.72
2022-10-13T18:15:06.572Z,100573.53
2022-10-13T18:17:34.330Z,100574.38
2022-10-13T18:20:02.049Z,100576.09
2022-10-13T18:22:31.174Z,100571.72
2022-10-13T18:24:59.809Z,100576.97
2022-10-13T18:27:27.507Z,100572.63
2022-10-13T18:29:55.261Z,100577.00
2022-10-13T18:32:25.530Z,100568.34
2022-10-13T18:34:56.179Z,100572.66
2022-10-13T18:37:24.057Z,100578.75
2022-10-13T18:39:51.810Z,100572.63
2022-10-13T18:42:19.580Z,100580.50
2022-10-13T18:44:47.346Z,100576.97
2022-10-13T18:47:15.167Z,100571.78
2022-10-13T18:49:44.297Z,100568.34
2022-10-13T18:52:12.816Z,100566.63
2022-10-13T18:54:40.524Z,100580.53
2022-10-13T18:57:08.247Z,100568.38
2022-10-13T18:59:38.582Z,100575.28
2022-10-13T19:02:06.877Z,100572.75
2022-10-13T19:04:35.991Z,100568.34
2022-10-13T19:07:05.060Z,100570.94
2022-10-13T19:09:35.151Z,100574.38
2022-10-13T19:12:03.024Z,100583.16
2022-10-13T19:14:30.993Z,100578.78
2022-10-13T19:17:01.943Z,100568.31
2022-10-13T19:19:30.600Z,100575.25
2022-10-13T19:21:58.565Z,100577.91
2022-10-13T19:24:27.980Z,100577.91
2022-10-13T19:26:56.145Z,100575.31
2022-10-13T19:29:23.920Z,100580.47
2022-10-13T19:31:51.698Z,100582.19
2022-10-13T19:34:19.420Z,100583.91
2022-10-13T19:36:47.429Z,100588.31
2022-10-13T19:39:20.520Z,100579.59
2022-10-13T19:41:52.583Z,100585.69
2022-10-13T19:44:22.439Z,100584.81
2022-10-13T19:46:52.221Z,100580.47
2022-10-13T19:49:26.244Z,100587.44
2022-10-13T19:51:55.927Z,100590.94
2022-10-13T19:54:25.755Z,100589.19
2022-10-13T19:56:57.356Z,100584.00
2022-10-13T19:59:25.176Z,100583.13
2022-10-13T20:01:52.908Z,100587.50
2022-10-13T20:04:20.727Z,100588.31
2022-10-13T20:06:49.893Z,100581.38
2022-10-13T20:09:19.491Z,100578.75
2022-10-13T20:11:50.714Z,100576.13
2022-10-13T20:14:19.945Z,100578.78
2022-10-13T20:16:47.920Z,100580.50
2022-10-13T20:19:19.253Z,100580.50
2022-10-13T20:21:48.114Z,100575.25
2022-10-13T20:24:15.948Z,100581.34
2022-10-13T20:26:43.773Z,100577.00
2022-10-13T20:29:11.651Z,100570.06
2022-10-13T20:31:41.517Z,100571.88
2022-10-13T20:34:10.888Z,100573.63
2022-10-13T20:36:39.417Z,100574.50
2022-10-13T20:39:08.862Z,100577.09
2022-10-13T20:41:36.740Z,100577.06
2022-10-13T20:44:04.716Z,100575.31
2022-10-13T20:46:34.544Z,100575.31
2022-10-13T20:49:12.664Z,100584.09
2022-10-13T20:51:42.575Z,100572.78
2022-10-13T20:54:12.649Z,100578.94
2022-10-13T20:56:41.206Z,100579.81
2022-10-13T20:59:11.586Z,100578.88
2022-10-13T21:01:39.364Z,100584.06
2022-10-13T21:04:08.657Z,100580.59
2022-10-13T21:06:36.902Z,100583.22
2022-10-13T21:09:07.177Z,100593.59
2022-10-13T21:11:36.208Z,100589.28
2022-10-13T21:14:06.690Z,100590.97
2022-10-13T21:16:35.813Z,100584.94
2022-10-13T21:19:08.572Z,100586.63
2022-10-13T21:21:36.701Z,100580.56
2022-10-13T21:24:07.290Z,100599.69
2022-10-13T21:26:36.832Z,100592.75
2022-10-13T21:29:05.196Z,100591.88
2022-10-13T21:31:35.351Z,100582.31
2022-10-13T21:34:03.202Z,100580.59
2022-10-13T21:36:33.523Z,100580.63
2022-10-13T21:39:04.403Z,100589.28
2022-10-13T21:41:33.988Z,100589.22
2022-10-13T21:44:02.023Z,100590.97
2022-10-13T21:46:34.330Z,100590.97
2022-10-13T21:49:05.061Z,100592.66
2022-10-13T21:51:37.690Z,100582.28
2022-10-13T21:54:10.185Z,100589.16
2022-10-13T21:56:39.992Z,100589.16
2022-10-13T21:59:09.982Z,100593.44
2022-10-13T22:01:37.711Z,100590.88
2022-10-13T22:04:12.940Z,100587.31
2022-10-13T22:06:42.590Z,100581.19
2022-10-13T22:09:10.989Z,100580.31
2022-10-13T22:11:39.828Z,100589.00
2022-10-13T22:14:13.986Z,100578.53
2022-10-13T22:16:44.631Z,100588.84
2022-10-13T22:19:13.915Z,100595.78
2022-10-13T22:21:45.708Z,100588.81
2022-10-13T22:24:17.180Z,100583.53
2022-10-13T22:26:47.504Z,100580.91
2022-10-13T22:29:19.454Z,100587.00
2022-10-13T22:31:49.090Z,100570.53
2022-10-13T22:34:17.720Z,100581.84
2022-10-13T22:36:46.828Z,100578.38
2022-10-13T22:39:15.594Z,100589.66
2022-10-13T22:41:43.782Z,100589.59
2022-10-13T22:44:12.591Z,100591.28
2022-10-13T22:46:40.726Z,100590.34
2022-10-13T22:49:13.287Z,100590.34
2022-10-13T22:51:41.012Z,100589.44
2022-10-13T22:54:10.246Z,100588.44
2022-10-13T22:56:39.929Z,100584.19
2022-10-13T22:59:09.249Z,100579.72
2022-10-13T23:01:37.074Z,100579.66
2022-10-13T23:04:05.551Z,100567.38
2022-10-13T23:06:35.876Z,100567.31
2022-10-13T23:09:11.669Z,100576.81
2022-10-13T23:11:40.369Z,100572.53
2022-10-13T23:14:09.083Z,100574.25
2022-10-13T23:16:36.941Z,100570.00
2022-10-13T23:19:04.888Z,100574.34
2022-10-13T23:21:32.645Z,100569.97
2022-10-13T23:24:03.513Z,100569.19
2022-10-13T23:26:33.902Z,100574.47
2022-10-13T23:29:02.052Z,100571.03
2022-10-13T23:31:29.915Z,100577.94
2022-10-13T23:33:58.764Z,100568.50
2022-10-13T23:36:29.221Z,100570.25
2022-10-13T23:39:00.221Z,100567.63
2022-10-13T23:41:29.083Z,100569.44
2022-10-13T23:43:58.461Z,100560.72
2022-10-13T23:46:26.305Z,100564.03
2022-10-13T23:48:54.734Z,100560.56
2022-10-13T23:51:25.088Z,100560.50
2022-10-13T23:53:54.813Z,100552.72
2022-10-13T23:56:23.439Z,100550.03
2022-10-13T23:58:51.677Z,100550.88
